sensor_id;sensor_type;location;lat;lon;timestamp;pressure;altitude;pressure_sealevel;temperature;humidity
71974;BME280;59840;52.122;5.404;2023-09-12T00:01:35;101441.53;;;20.00;100.00
71974;BME280;59840;52.122;5.404;2023-09-12T00:04:01;101441.41;;;19.92;100.00
71974;BME280;59840;52.122;5.404;2023-09-12T00:06:28;101441.69;;;19.90;100.00
71974;BME280;59840;52.122;5.404;2023-09-12T00:08:55;101433.66;;;19.90;100.00
71974;BME280;59840;52.122;5.404;2023-09-12T00:11:21;101430.69;;;19.92;100.00
71974;BME280;59840;52.122;5.404;2023-09-12T00:13:53;101427.28;;;19.86;100.00
71974;BME280;59840;52.122;5.404;2023-09-12T00:16:19;101429.16;;;19.86;100.00
71974;BME280;59840;52.122;5.404;2023-09-12T00:18:46;101415.16;;;19.75;100.00
71974;BME280;59840;52.122;5.404;2023-09-12T00:21:12;101421.47;;;19.65;100.00
71974;BME280;59840;52.122;5.404;2023-09-12T00:23:39;101414.44;;;19.51;100.00
71974;BME280;59840;52.122;5.404;2023-09-12T00:26:06;101418.75;;;19.47;100.00
71974;BME280;59840;52.122;5.404;2023-09-12T00:28:32;101414.97;;;19.48;100.00
71974;BME280;59840;52.122;5.404;2023-09-12T00:31:00;101409.59;;;19.53;100.00
71974;BME280;59840;52.122;5.404;2023-09-12T00:33:27;101410.44;;;19.48;100.00
71974;BME280;59840;52.122;5.404;2023-09-12T00:35:53;101409.09;;;19.51;100.00
71974;BME280;59840;52.122;5.404;2023-09-12T00:38:20;101412.56;;;19.51;100.00
71974;BME280;59840;52.122;5.404;2023-09-12T00:40:46;101407.91;;;19.38;100.00
71974;BME280;59840;52.122;5.404;2023-09-12T00:43:15;101413.25;;;19.19;100.00
71974;BME280;59840;52.122;5.404;2023-09-12T00:45:42;101423.56;;;19.07;100.00
71974;BME280;59840;52.122;5.404;2023-09-12T00:48:09;101430.78;;;19.06;100.00
71974;BME280;59840;52.122;5.404;2023-09-12T00:50:36;101426.31;;;19.02;100.00
71974;BME280;59840;52.122;5.404;2023-09-12T00:53:04;101433.13;;;18.89;100.00
71974;BME280;59840;52.122;5.404;2023-09-12T00:55:32;101422.91;;;18.96;100.00
71974;BME280;59840;52.122;5.404;2023-09-12T00:58:01;101427.91;;;19.03;100.00
71974;BME280;59840;52.122;5.404;2023-09-12T01:00:28;101429.00;;;19.02;100.00
71974;BME280;59840;52.122;5.404;2023-09-12T01:02:55;101426.38;;;18.97;100.00
71974;BME280;59840;52.122;5.404;2023-09-12T01:05:22;101430.81;;;18.83;100.00
71974;BME280;59840;52.122;5.404;2023-09-12T01:07:49;101428.38;;;18.62;100.00
71974;BME280;59840;52.122;5.404;2023-09-12T01:10:16;101428.47;;;18.47;100.00
71974;BME280;59840;52.122;5.404;2023-09-12T01:12:42;101426.41;;;18.39;100.00
71974;BME280;59840;52.122;5.404;2023-09-12T01:15:09;101425.69;;;18.33;100.00
71974;BME280;59840;52.122;5.404;2023-09-12T01:17:42;101422.25;;;18.28;100.00
71974;BME280;59840;52.122;5.404;2023-09-12T01:20:14;101420.69;;;18.22;100.00
71974;BME280;59840;52.122;5.404;2023-09-12T01:26:03;101421.03;;;18.15;100.00
71974;BME280;59840;52.122;5.404;2023-09-12T01:28:39;101426.28;;;18.25;100.00
71974;BME280;59840;52.122;5.404;2023-09-12T01:31:09;101431.63;;;18.25;100.00
71974;BME280;59840;52.122;5.404;2023-09-12T01:33:36;101426.03;;;18.22;100.00
71974;BME280;59840;52.122;5.404;2023-09-12T01:36:03;101429.56;;;18.17;100.00
71974;BME280;59840;52.122;5.404;2023-09-12T01:38:29;101421.91;;;18.05;100.00
71974;BME280;59840;52.122;5.404;2023-09-12T01:40:56;101421.66;;;18.02;100.00
71974;BME280;59840;52.122;5.404;2023-09-12T01:43:24;101419.47;;;18.09;100.00
71974;BME280;59840;52.122;5.404;2023-09-12T01:45:56;101415.47;;;18.06;100.00
71974;BME280;59840;52.122;5.404;2023-09-12T01:48:26;101411.78;;;18.02;100.00
71974;BME280;59840;52.122;5.404;2023-09-12T01:50:57;101414.88;;;18.15;100.00
71974;BME280;59840;52.122;5.404;2023-09-12T01:53:25;101419.91;;;18.21;100.00
71974;BME280;59840;52.122;5.404;2023-09-12T01:55:52;101420.66;;;18.27;100.00
71974;BME280;59840;52.122;5.404;2023-09-12T01:58:19;101412.59;;;18.32;100.00
71974;BME280;59840;52.122;5.404;2023-09-12T02:00:46;101408.78;;;18.38;100.00
71974;BME280;59840;52.122;5.404;2023-09-12T02:03:13;101416.97;;;18.47;100.00
71974;BME280;59840;52.122;5.404;2023-09-12T02:05:40;101412.72;;;18.46;100.00
71974;BME280;59840;52.122;5.404;2023-09-12T02:08:07;101410.09;;;18.40;100.00
71974;BME280;59840;52.122;5.404;2023-09-12T02:10:33;101398.50;;;18.26;100.00
71974;BME280;59840;52.122;5.404;2023-09-12T02:13:00;101399.84;;;18.24;100.00
71974;BME280;59840;52.122;5.404;2023-09-12T02:15:26;101401.97;;;18.27;100.00
71974;BME280;59840;52.122;5.404;2023-09-12T02:17:53;101400.03;;;18.32;100.00
71974;BME280;59840;52.122;5.404;2023-09-12T02:20:20;101409.84;;;18.37;100.00
71974;BME280;59840;52.122;5.404;2023-09-12T02:22:47;101396.34;;;18.28;100.00
71974;BME280;59840;52.122;5.404;2023-09-12T02:25:14;101399.06;;;18.23;100.00
71974;BME280;59840;52.122;5.404;2023-09-12T02:27:40;101400.88;;;18.28;100.00
71974;BME280;59840;52.122;5.404;2023-09-12T02:30:08;101402.44;;;18.34;100.00
71974;BME280;59840;52.122;5.404;2023-09-12T02:32:34;101404.03;;;18.35;100.00
71974;BME280;59840;52.122;5.404;2023-09-12T02:35:01;101404.59;;;18.32;100.00
71974;BME280;59840;52.122;5.404;2023-09-12T02:37:28;101402.53;;;18.24;100.00
71974;BME280;59840;52.122;5.404;2023-09-12T02:39:55;101417.19;;;18.26;100.00
71974;BME280;59840;52.122;5.404;2023-09-12T02:42:21;101417.47;;;18.25;100.00
71974;BME280;59840;52.122;5.404;2023-09-12T02:44:48;101414.41;;;18.07;100.00
71974;BME280;59840;52.122;5.404;2023-09-12T02:47:15;101407.28;;;17.98;100.00
71974;BME280;59840;52.122;5.404;2023-09-12T02:49:42;101415.06;;;17.94;100.00
71974;BME280;59840;52.122;5.404;2023-09-12T02:52:08;101405.78;;;17.87;100.00
71974;BME280;59840;52.122;5.404;2023-09-12T02:54:35;101418.41;;;17.76;100.00
71974;BME280;59840;52.122;5.404;2023-09-12T02:57:02;101417.56;;;17.81;100.00
71974;BME280;59840;52.122;5.404;2023-09-12T02:59:29;101415.66;;;17.86;100.00
71974;BME280;59840;52.122;5.404;2023-09-12T03:01:56;101407.66;;;17.86;100.00
71974;BME280;59840;52.122;5.404;2023-09-12T03:04:25;101414.91;;;17.81;100.00
71974;BME280;59840;52.122;5.404;2023-09-12T03:06:52;101422.63;;;17.82;100.00
71974;BME280;59840;52.122;5.404;2023-09-12T03:09:19;101414.63;;;17.82;100.00
71974;BME280;59840;52.122;5.404;2023-09-12T03:11:46;101420.47;;;17.84;100.00
71974;BME280;59840;52.122;5.404;2023-09-12T03:14:12;101418.63;;;17.80;100.00
71974;BME280;59840;52.122;5.404;2023-09-12T03:16:39;101414.69;;;17.72;100.00
71974;BME280;59840;52.122;5.404;2023-09-12T03:19:06;101414.16;;;17.70;100.00
71974;BME280;59840;52.122;5.404;2023-09-12T03:21:32;101414.66;;;17.77;100.00
71974;BME280;59840;52.122;5.404;2023-09-12T03:23:59;101418.63;;;17.80;100.00
71974;BME280;59840;52.122;5.404;2023-09-12T03:26:26;101417.31;;;17.77;100.00
71974;BME280;59840;52.122;5.404;2023-09-12T03:28:53;101415.22;;;17.69;100.00
71974;BME280;59840;52.122;5.404;2023-09-12T03:31:19;101410.72;;;17.64;100.00
71974;BME280;59840;52.122;5.404;2023-09-12T03:33:46;101409.13;;;17.63;100.00
71974;BME280;59840;52.122;5.404;2023-09-12T03:36:16;101400.06;;;17.59;100.00
71974;BME280;59840;52.122;5.404;2023-09-12T03:38:46;101407.84;;;17.56;100.00
71974;BME280;59840;52.122;5.404;2023-09-12T03:41:13;101406.25;;;17.50;100.00
71974;BME280;59840;52.122;5.404;2023-09-12T03:43:39;101412.69;;;17.49;100.00
71974;BME280;59840;52.122;5.404;2023-09-12T03:46:06;101408.63;;;17.56;100.00
71974;BME280;59840;52.122;5.404;2023-09-12T03:48:33;101410.47;;;17.61;100.00
71974;BME280;59840;52.122;5.404;2023-09-12T03:51:03;101401.94;;;17.59;100.00
71974;BME280;59840;52.122;5.404;2023-09-12T03:53:30;101405.69;;;17.58;100.00
71974;BME280;59840;52.122;5.404;2023-09-12T03:55:58;101401.97;;;17.54;100.00
71974;BME280;59840;52.122;5.404;2023-09-12T03:58:24;101400.94;;;17.50;100.00
71974;BME280;59840;52.122;5.404;2023-09-12T04:00:51;101399.34;;;17.49;100.00
71974;BME280;59840;52.122;5.404;2023-09-12T04:03:18;101406.25;;;17.55;100.00
71974;BME280;59840;52.122;5.404;2023-09-12T04:05:49;101405.13;;;17.61;100.00
71974;BME280;59840;52.122;5.404;2023-09-12T04:08:16;101394.72;;;17.64;100.00
71974;BME280;59840;52.122;5.404;2023-09-12T04:10:43;101395.25;;;17.66;100.00
71974;BME280;59840;52.122;5.404;2023-09-12T04:13:09;101408.59;;;17.66;100.00
71974;BME280;59840;52.122;5.404;2023-09-12T04:15:36;101405.13;;;17.61;100.00
71974;BME280;59840;52.122;5.404;2023-09-12T04:18:03;101399.28;;;17.59;100.00
71974;BME280;59840;52.122;5.404;2023-09-12T04:20:30;101395.81;;;17.58;100.00
71974;BME280;59840;52.122;5.404;2023-09-12T04:23:00;101394.78;;;17.49;100.00
71974;BME280;59840;52.122;5.404;2023-09-12T04:25:27;101399.91;;;17.40;100.00
71974;BME280;59840;52.122;5.404;2023-09-12T04:27:53;101395.91;;;17.38;100.00
71974;BME280;59840;52.122;5.404;2023-09-12T04:30:20;101379.66;;;17.34;100.00
71974;BME280;59840;52.122;5.404;2023-09-12T04:32:46;101377.22;;;17.43;100.00
71974;BME280;59840;52.122;5.404;2023-09-12T04:35:13;101381.47;;;17.49;100.00
71974;BME280;59840;52.122;5.404;2023-09-12T04:37:40;101384.63;;;17.56;100.00
71974;BME280;59840;52.122;5.404;2023-09-12T04:40:07;101387.53;;;17.60;100.00
71974;BME280;59840;52.122;5.404;2023-09-12T04:42:34;101385.38;;;17.62;100.00
71974;BME280;59840;52.122;5.404;2023-09-12T04:45:00;101381.13;;;17.66;100.00
71974;BME280;59840;52.122;5.404;2023-09-12T04:47:27;101376.31;;;17.63;100.00
71974;BME280;59840;52.122;5.404;2023-09-12T04:49:54;101374.47;;;17.58;100.00
71974;BME280;59840;52.122;5.404;2023-09-12T04:52:20;101383.28;;;17.54;100.00
71974;BME280;59840;52.122;5.404;2023-09-12T04:54:47;101384.38;;;17.53;100.00
71974;BME280;59840;52.122;5.404;2023-09-12T04:57:14;101393.97;;;17.54;100.00
71974;BME280;59840;52.122;5.404;2023-09-12T04:59:40;101379.84;;;17.53;100.00
71974;BME280;59840;52.122;5.404;2023-09-12T05:02:07;101370.78;;;17.49;100.00
71974;BME280;59840;52.122;5.404;2023-09-12T05:04:34;101370.28;;;17.42;100.00
71974;BME280;59840;52.122;5.404;2023-09-12T05:07:01;101379.19;;;17.32;100.00
71974;BME280;59840;52.122;5.404;2023-09-12T05:09:28;101381.59;;;17.29;100.00
71974;BME280;59840;52.122;5.404;2023-09-12T05:11:54;101381.84;;;17.32;100.00
71974;BME280;59840;52.122;5.404;2023-09-12T05:14:21;101385.00;;;17.34;100.00
71974;BME280;59840;52.122;5.404;2023-09-12T05:16:50;101383.41;;;17.33;100.00
71974;BME280;59840;52.122;5.404;2023-09-12T05:19:17;101391.38;;;17.38;100.00
71974;BME280;59840;52.122;5.404;2023-09-12T05:21:43;101396.16;;;17.41;100.00
71974;BME280;59840;52.122;5.404;2023-09-12T05:24:10;101388.16;;;17.41;100.00
71974;BME280;59840;52.122;5.404;2023-09-12T05:26:37;101389.50;;;17.39;100.00
71974;BME280;59840;52.122;5.404;2023-09-12T05:29:04;101393.53;;;17.36;100.00
71974;BME280;59840;52.122;5.404;2023-09-12T05:31:32;101395.19;;;17.27;100.00
71974;BME280;59840;52.122;5.404;2023-09-12T05:33:59;101397.91;;;17.17;100.00
71974;BME280;59840;52.122;5.404;2023-09-12T05:36:25;101396.09;;;17.07;100.00
71974;BME280;59840;52.122;5.404;2023-09-12T05:38:52;101396.88;;;17.08;100.00
71974;BME280;59840;52.122;5.404;2023-09-12T05:41:18;101395.84;;;17.04;100.00
71974;BME280;59840;52.122;5.404;2023-09-12T05:43:45;101394.47;;;17.12;100.00
71974;BME280;59840;52.122;5.404;2023-09-12T05:46:12;101396.03;;;17.18;100.00
71974;BME280;59840;52.122;5.404;2023-09-12T05:48:39;101398.44;;;17.19;100.00
71974;BME280;59840;52.122;5.404;2023-09-12T05:51:05;101399.78;;;17.17;100.00
71974;BME280;59840;52.122;5.404;2023-09-12T05:53:32;101395.53;;;17.11;100.00
71974;BME280;59840;52.122;5.404;2023-09-12T05:55:58;101391.56;;;17.03;100.00
71974;BME280;59840;52.122;5.404;2023-09-12T05:58:25;101390.50;;;16.99;100.00
71974;BME280;59840;52.122;5.404;2023-09-12T06:00:52;101389.94;;;17.07;100.00
71974;BME280;59840;52.122;5.404;2023-09-12T06:03:18;101398.44;;;17.19;100.00
71974;BME280;59840;52.122;5.404;2023-09-12T06:05:45;101406.66;;;17.28;100.00
71974;BME280;59840;52.122;5.404;2023-09-12T06:08:12;101409.53;;;17.36;100.00
71974;BME280;59840;52.122;5.404;2023-09-12T06:10:39;101408.97;;;17.45;100.00
71974;BME280;59840;52.122;5.404;2023-09-12T06:13:05;101415.88;;;17.51;100.00
71974;BME280;59840;52.122;5.404;2023-09-12T06:15:32;101424.38;;;17.58;100.00
71974;BME280;59840;52.122;5.404;2023-09-12T06:17:59;101423.81;;;17.61;100.00
71974;BME280;59840;52.122;5.404;2023-09-12T06:20:26;101421.16;;;17.66;100.00
71974;BME280;59840;52.122;5.404;2023-09-12T06:22:53;101426.72;;;17.69;100.00
71974;BME280;59840;52.122;5.404;2023-09-12T06:25:19;101428.31;;;17.70;100.00
71974;BME280;59840;52.122;5.404;2023-09-12T06:27:46;101424.63;;;17.66;100.00
71974;BME280;59840;52.122;5.404;2023-09-12T06:30:13;101422.78;;;17.57;100.00
71974;BME280;59840;52.122;5.404;2023-09-12T06:32:39;101431.56;;;17.57;100.00
71974;BME280;59840;52.122;5.404;2023-09-12T06:35:06;101430.78;;;17.57;100.00
71974;BME280;59840;52.122;5.404;2023-09-12T06:37:33;101433.97;;;17.59;100.00
71974;BME280;59840;52.122;5.404;2023-09-12T06:40:00;101422.50;;;17.58;100.00
71974;BME280;59840;52.122;5.404;2023-09-12T06:42:27;101438.47;;;17.63;100.00
71974;BME280;59840;52.122;5.404;2023-09-12T06:44:53;101438.16;;;17.75;100.00
71974;BME280;59840;52.122;5.404;2023-09-12T06:47:20;101433.81;;;17.84;100.00
71974;BME280;59840;52.122;5.404;2023-09-12T06:49:46;101430.28;;;17.94;100.00
71974;BME280;59840;52.122;5.404;2023-09-12T06:52:19;101432.69;;;17.95;100.00
71974;BME280;59840;52.122;5.404;2023-09-12T06:54:46;101432.13;;;17.98;100.00
71974;BME280;59840;52.122;5.404;2023-09-12T06:57:13;101437.91;;;18.05;100.00
71974;BME280;59840;52.122;5.404;2023-09-12T06:59:40;101432.50;;;18.16;100.00
71974;BME280;59840;52.122;5.404;2023-09-12T07:02:07;101436.19;;;18.25;100.00
71974;BME280;59840;52.122;5.404;2023-09-12T07:04:36;101443.59;;;18.33;100.00
71974;BME280;59840;52.122;5.404;2023-09-12T07:07:03;101440.56;;;18.39;100.00
71974;BME280;59840;52.122;5.404;2023-09-12T07:09:30;101445.88;;;18.45;100.00
71974;BME280;59840;52.122;5.404;2023-09-12T07:11:57;101444.75;;;18.51;100.00
71974;BME280;59840;52.122;5.404;2023-09-12T07:14:24;101440.44;;;18.55;100.00
71974;BME280;59840;52.122;5.404;2023-09-12T07:16:51;101440.66;;;18.58;100.00
71974;BME280;59840;52.122;5.404;2023-09-12T07:19:18;101436.38;;;18.62;100.00
71974;BME280;59840;52.122;5.404;2023-09-12T07:21:45;101428.88;;;18.64;100.00
71974;BME280;59840;52.122;5.404;2023-09-12T07:24:11;101430.97;;;18.67;100.00
71974;BME280;59840;52.122;5.404;2023-09-12T07:26:38;101434.66;;;18.71;100.00
71974;BME280;59840;52.122;5.404;2023-09-12T07:29:04;101445.59;;;18.75;100.00
71974;BME280;59840;52.122;5.404;2023-09-12T07:31:32;101438.66;;;18.74;100.00
71974;BME280;59840;52.122;5.404;2023-09-12T07:33:58;101439.94;;;18.77;100.00
71974;BME280;59840;52.122;5.404;2023-09-12T07:36:25;101431.94;;;18.77;100.00
71974;BME280;59840;52.122;5.404;2023-09-12T07:38:52;101431.94;;;18.77;100.00
71974;BME280;59840;52.122;5.404;2023-09-12T07:41:18;101434.31;;;18.78;100.00
71974;BME280;59840;52.122;5.404;2023-09-12T07:43:45;101443.38;;;18.82;100.00
71974;BME280;59840;52.122;5.404;2023-09-12T07:46:12;101444.13;;;18.88;100.00
71974;BME280;59840;52.122;5.404;2023-09-12T07:48:39;101441.63;;;18.96;100.00
71974;BME280;59840;52.122;5.404;2023-09-12T07:51:12;101450.81;;;19.09;100.00
71974;BME280;59840;52.122;5.404;2023-09-12T07:53:38;101446.66;;;19.22;100.00
71974;BME280;59840;52.122;5.404;2023-09-12T07:56:06;101437.13;;;19.34;100.00
71974;BME280;59840;52.122;5.404;2023-09-12T07:58:32;101443.91;;;19.46;100.00
71974;BME280;59840;52.122;5.404;2023-09-12T08:00:59;101437.16;;;19.53;100.00
71974;BME280;59840;52.122;5.404;2023-09-12T08:03:25;101450.47;;;19.58;100.00
71974;BME280;59840;52.122;5.404;2023-09-12T08:05:58;101446.41;;;19.61;100.00
71974;BME280;59840;52.122;5.404;2023-09-12T08:08:25;101459.16;;;19.69;100.00
71974;BME280;59840;52.122;5.404;2023-09-12T08:10:52;101455.63;;;19.73;100.00
71974;BME280;59840;52.122;5.404;2023-09-12T08:13:18;101461.66;;;19.79;100.00
71974;BME280;59840;52.122;5.404;2023-09-12T08:15:45;101469.63;;;19.84;100.00
71974;BME280;59840;52.122;5.404;2023-09-12T08:18:12;101468.19;;;19.92;100.00
71974;BME280;59840;52.122;5.404;2023-09-12T08:20:38;101464.63;;;19.96;100.00
71974;BME280;59840;52.122;5.404;2023-09-12T08:23:05;101469.91;;;20.01;100.00
71974;BME280;59840;52.122;5.404;2023-09-12T08:25:32;101464.78;;;20.05;100.00
71974;BME280;59840;52.122;5.404;2023-09-12T08:27:59;101472.72;;;20.10;100.00
71974;BME280;59840;52.122;5.404;2023-09-12T08:30:25;101464.88;;;20.14;100.00
71974;BME280;59840;52.122;5.404;2023-09-12T08:32:52;101469.66;;;20.17;100.00
71974;BME280;59840;52.122;5.404;2023-09-12T08:35:19;101470.66;;;20.21;100.00
71974;BME280;59840;52.122;5.404;2023-09-12T08:37:45;101468.78;;;20.21;100.00
71974;BME280;59840;52.122;5.404;2023-09-12T08:40:12;101471.69;;;20.25;100.00
71974;BME280;59840;52.122;5.404;2023-09-12T08:42:41;101474.28;;;20.30;100.00
71974;BME280;59840;52.122;5.404;2023-09-12T08:45:13;101479.25;;;20.36;100.00
71974;BME280;59840;52.122;5.404;2023-09-12T08:47:42;101471.75;;;20.38;100.00
71974;BME280;59840;52.122;5.404;2023-09-12T08:50:11;101469.78;;;20.44;100.00
71974;BME280;59840;52.122;5.404;2023-09-12T08:52:43;101465.22;;;20.58;100.00
71974;BME280;59840;52.122;5.404;2023-09-12T08:55:34;101468.81;;;20.67;100.00
71974;BME280;59840;52.122;5.404;2023-09-12T08:58:03;101469.63;;;20.68;100.00
71974;BME280;59840;52.122;5.404;2023-09-12T09:00:30;101468.81;;;20.67;100.00
71974;BME280;59840;52.122;5.404;2023-09-12T09:02:57;101459.97;;;20.67;100.00
71974;BME280;59840;52.122;5.404;2023-09-12T09:05:25;101456.13;;;20.73;100.00
71974;BME280;59840;52.122;5.404;2023-09-12T09:07:54;101473.09;;;20.82;100.00
71974;BME280;59840;52.122;5.404;2023-09-12T09:10:22;101469.50;;;20.87;100.00
71974;BME280;59840;52.122;5.404;2023-09-12T09:13:08;101465.66;;;20.93;100.00
71974;BME280;59840;52.122;5.404;2023-09-12T09:15:37;101472.22;;;21.00;100.00
71974;BME280;59840;52.122;5.404;2023-09-12T09:18:09;101466.06;;;21.00;100.00
71974;BME280;59840;52.122;5.404;2023-09-12T09:20:37;101473.50;;;21.03;100.00
71974;BME280;59840;52.122;5.404;2023-09-12T09:23:09;101472.81;;;21.11;100.00
71974;BME280;59840;52.122;5.404;2023-09-12T09:25:40;101468.72;;;21.14;100.00
71974;BME280;59840;52.122;5.404;2023-09-12T09:28:16;101476.09;;;21.22;100.00
71974;BME280;59840;52.122;5.404;2023-09-12T09:30:45;101483.75;;;21.28;100.00
71974;BME280;59840;52.122;5.404;2023-09-12T09:33:13;101478.56;;;21.32;100.00
71974;BME280;59840;52.122;5.404;2023-09-12T09:35:47;101477.19;;;21.34;100.00
71974;BME280;59840;52.122;5.404;2023-09-12T09:38:18;101488.91;;;21.38;100.00
71974;BME280;59840;52.122;5.404;2023-09-12T09:40:45;101486.13;;;21.44;100.00
71974;BME280;59840;52.122;5.404;2023-09-12T09:43:12;101478.84;;;21.44;100.00
71974;BME280;59840;52.122;5.404;2023-09-12T09:45:46;101475.97;;;21.40;100.00
71974;BME280;59840;52.122;5.404;2023-09-12T09:48:19;101485.94;;;21.40;100.00
71974;BME280;59840;52.122;5.404;2023-09-12T09:50:47;101478.38;;;21.42;100.00
71974;BME280;59840;52.122;5.404;2023-09-12T09:53:14;101484.22;;;21.44;100.00
71974;BME280;59840;52.122;5.404;2023-09-12T09:55:40;101482.53;;;21.48;100.00
71974;BME280;59840;52.122;5.404;2023-09-12T09:58:14;101484.47;;;21.56;100.00
71974;BME280;59840;52.122;5.404;2023-09-12T10:00:43;101484.78;;;21.55;100.00
71974;BME280;59840;52.122;5.404;2023-09-12T10:03:11;101479.72;;;21.53;100.00
71974;BME280;59840;52.122;5.404;2023-09-12T10:05:40;101485.88;;;21.54;100.00
71974;BME280;59840;52.122;5.404;2023-09-12T10:08:09;101489.34;;;21.54;100.00
71974;BME280;59840;52.122;5.404;2023-09-12T10:10:38;101490.84;;;21.60;100.00
71974;BME280;59840;52.122;5.404;2023-09-12T10:13:05;101485.66;;;21.64;100.00
71974;BME280;59840;52.122;5.404;2023-09-12T10:15:34;101484.47;;;21.70;100.00
71974;BME280;59840;52.122;5.404;2023-09-12T10:18:04;101492.09;;;21.77;100.00
71974;BME280;59840;52.122;5.404;2023-09-12T10:20:52;101489.41;;;21.77;100.00
71974;BME280;59840;52.122;5.404;2023-09-12T10:23:34;101493.63;;;21.69;100.00
71974;BME280;59840;52.122;5.404;2023-09-12T10:26:12;101494.72;;;21.68;100.00
71974;BME280;59840;52.122;5.404;2023-09-12T10:28:40;101482.16;;;21.77;100.00
71974;BME280;59840;52.122;5.404;2023-09-12T10:31:11;101483.00;;;21.86;100.00
71974;BME280;59840;52.122;5.404;2023-09-12T10:33:38;101474.69;;;21.96;100.00
71974;BME280;59840;52.122;5.404;2023-09-12T10:36:08;101472.94;;;21.92;100.00
71974;BME280;59840;52.122;5.404;2023-09-12T10:38:42;101473.66;;;21.84;100.00
71974;BME280;59840;52.122;5.404;2023-09-12T10:41:14;101473.50;;;21.80;100.00
71974;BME280;59840;52.122;5.404;2023-09-12T10:43:43;101477.81;;;21.90;100.00
71974;BME280;59840;52.122;5.404;2023-09-12T10:46:13;101481.66;;;21.97;100.00
71974;BME280;59840;52.122;5.404;2023-09-12T10:48:40;101484.75;;;22.04;100.00
71974;BME280;59840;52.122;5.404;2023-09-12T10:51:08;101486.09;;;22.16;100.00
71974;BME280;59840;52.122;5.404;2023-09-12T10:53:36;101494.69;;;22.26;100.00
71974;BME280;59840;52.122;5.404;2023-09-12T11:01:34;101498.44;;;22.39;100.00
71974;BME280;59840;52.122;5.404;2023-09-12T11:06:49;101487.19;;;22.37;100.00
71974;BME280;59840;52.122;5.404;2023-09-12T11:09:18;101483.03;;;22.31;100.00
71974;BME280;59840;52.122;5.404;2023-09-12T11:11:47;101501.97;;;22.26;100.00
71974;BME280;59840;52.122;5.404;2023-09-12T11:14:15;101488.09;;;22.32;100.00
71974;BME280;59840;52.122;5.404;2023-09-12T11:16:42;101480.56;;;22.43;98.40
71974;BME280;59840;52.122;5.404;2023-09-12T11:19:17;101474.91;;;22.53;98.16
71974;BME280;59840;52.122;5.404;2023-09-12T11:21:53;101465.00;;;22.62;95.54
71974;BME280;59840;52.122;5.404;2023-09-12T11:24:20;101466.44;;;22.68;95.68
71974;BME280;59840;52.122;5.404;2023-09-12T11:26:59;101458.25;;;22.73;95.48
71974;BME280;59840;52.122;5.404;2023-09-12T11:29:28;101458.41;;;22.77;95.47
71974;BME280;59840;52.122;5.404;2023-09-12T11:31:59;101455.44;;;22.79;95.73
71974;BME280;59840;52.122;5.404;2023-09-12T11:34:26;101454.84;;;22.82;98.38
71974;BME280;59840;52.122;5.404;2023-09-12T11:36:58;101451.28;;;22.72;92.97
71974;BME280;59840;52.122;5.404;2023-09-12T11:39:31;101454.41;;;22.66;93.94
71974;BME280;59840;52.122;5.404;2023-09-12T11:41:59;101455.22;;;22.66;95.79
71974;BME280;59840;52.122;5.404;2023-09-12T11:44:27;101459.94;;;22.61;93.49
71974;BME280;59840;52.122;5.404;2023-09-12T11:46:54;101460.72;;;22.61;94.08
71974;BME280;59840;52.122;5.404;2023-09-12T11:49:21;101460.28;;;22.68;93.05
71974;BME280;59840;52.122;5.404;2023-09-12T11:51:49;101456.53;;;22.78;94.82
71974;BME280;59840;52.122;5.404;2023-09-12T11:54:26;101460.22;;;22.90;95.38
71974;BME280;59840;52.122;5.404;2023-09-12T11:56:53;101455.50;;;22.96;95.53
71974;BME280;59840;52.122;5.404;2023-09-12T11:59:26;101458.84;;;23.01;93.67
71974;BME280;59840;52.122;5.404;2023-09-12T12:01:53;101467.13;;;23.14;97.26
71974;BME280;59840;52.122;5.404;2023-09-12T12:04:20;101464.09;;;23.24;96.27
71974;BME280;59840;52.122;5.404;2023-09-12T12:06:50;101459.22;;;23.34;94.11
71974;BME280;59840;52.122;5.404;2023-09-12T12:09:18;101458.13;;;23.44;94.67
71974;BME280;59840;52.122;5.404;2023-09-12T12:11:46;101459.25;;;23.52;91.27
71974;BME280;59840;52.122;5.404;2023-09-12T12:14:14;101466.06;;;23.58;91.53
71974;BME280;59840;52.122;5.404;2023-09-12T12:16:42;101468.63;;;23.63;90.48
71974;BME280;59840;52.122;5.404;2023-09-12T12:19:10;101454.66;;;23.61;89.75
71974;BME280;59840;52.122;5.404;2023-09-12T12:21:42;101447.88;;;23.55;90.18
71974;BME280;59840;52.122;5.404;2023-09-12T12:24:13;101443.41;;;23.59;89.94
71974;BME280;59840;52.122;5.404;2023-09-12T12:26:41;101431.84;;;23.67;89.48
71974;BME280;59840;52.122;5.404;2023-09-12T12:29:09;101436.28;;;23.63;84.67
71974;BME280;59840;52.122;5.404;2023-09-12T12:31:37;101443.88;;;23.61;85.86
71974;BME280;59840;52.122;5.404;2023-09-12T12:34:04;101445.00;;;23.68;88.39
71974;BME280;59840;52.122;5.404;2023-09-12T12:36:51;101431.53;;;23.77;89.43
71974;BME280;59840;52.122;5.404;2023-09-12T12:39:24;101429.16;;;23.84;89.32
71974;BME280;59840;52.122;5.404;2023-09-12T12:41:54;101428.50;;;23.87;88.06
71974;BME280;59840;52.122;5.404;2023-09-12T12:44:22;101428.78;;;23.94;87.29
71974;BME280;59840;52.122;5.404;2023-09-12T12:46:52;101423.72;;;24.01;84.93
71974;BME280;59840;52.122;5.404;2023-09-12T12:49:20;101420.69;;;24.03;84.20
71974;BME280;59840;52.122;5.404;2023-09-12T12:51:48;101420.53;;;24.08;82.74
71974;BME280;59840;52.122;5.404;2023-09-12T12:54:15;101423.22;;;24.08;86.37
71974;BME280;59840;52.122;5.404;2023-09-12T12:56:43;101431.31;;;24.08;84.59